FYOA

Ondangwa Airport

Ondangwa, Namibia
METAR FYOA 260500Z 00000KT 9999 SCT045 17/13 Q1019
Observed Flight Rules
Apr-26 @ 05:00 UTC (an hour ago) Visual Flight Rules
Visibility Clouds
10,000+ meters
  • Scattered at 4,500' AGL
Temperatures Readings
Current 17°C / 63°F
Dewpoint 13°C / 55°F
Humidity 77%
Altimeter 30.09" Hg
Pressure 1019 hPa
Elevation 1095
METAR FYOA 260500Z 00000KT 9999 SCT045 17/13 Q1019
Observed Flight Rules
Apr-26 @ 05:00 UTC
(an hour ago)
VFR
Clouds
  • Scattered at 4,500' AGL
Temperature Dewpoint
17°C / 63°F 13°C / 55°F
Humidity Altimeter Pressure
77% 30.09" Hg 1019 hPa